createdAt,value
2022-12-20T00:00:06.393Z,1.75
2022-12-20T00:00:27.567Z,1.75
2022-12-20T00:00:48.623Z,1.76
2022-12-20T00:01:09.697Z,1.76
2022-12-20T00:01:30.860Z,1.76
2022-12-20T00:01:52.150Z,1.75
2022-12-20T00:02:13.366Z,1.76
2022-12-20T00:02:34.619Z,1.77
2022-12-20T00:02:55.988Z,1.76
2022-12-20T00:03:17.108Z,1.76
2022-12-20T00:03:38.232Z,1.76
2022-12-20T00:03:59.357Z,1.76
2022-12-20T00:04:20.388Z,1.76
2022-12-20T00:04:41.447Z,1.76
2022-12-20T00:05:02.535Z,1.76
2022-12-20T00:05:23.704Z,1.76
2022-12-20T00:05:44.761Z,1.76
2022-12-20T00:06:05.836Z,1.76
2022-12-20T00:06:26.893Z,1.76
2022-12-20T00:06:48.006Z,1.76
2022-12-20T00:07:09.063Z,1.76
2022-12-20T00:07:30.309Z,1.76
2022-12-20T00:07:51.359Z,1.76
2022-12-20T00:08:12.813Z,1.76
2022-12-20T00:08:33.843Z,1.76
2022-12-20T00:08:54.953Z,1.77
2022-12-20T00:09:16.052Z,1.77
2022-12-20T00:09:37.147Z,1.76
2022-12-20T00:09:58.235Z,1.77
2022-12-20T00:10:19.412Z,1.77
2022-12-20T00:10:40.474Z,1.76
2022-12-20T00:11:01.536Z,1.77
2022-12-20T00:11:22.607Z,1.77
2022-12-20T00:11:43.655Z,1.76
2022-12-20T00:12:04.717Z,1.77
2022-12-20T00:12:25.788Z,1.78
2022-12-20T00:12:46.830Z,1.78
2022-12-20T00:13:07.961Z,1.78
2022-12-20T00:13:29.289Z,1.77
2022-12-20T00:13:50.363Z,1.77
2022-12-20T00:14:11.441Z,1.77
2022-12-20T00:14:32.485Z,1.77
2022-12-20T00:14:53.584Z,1.77
2022-12-20T00:15:14.626Z,1.78
2022-12-20T00:15:35.686Z,1.78
2022-12-20T00:15:56.744Z,1.78
2022-12-20T00:16:17.840Z,1.78
2022-12-20T00:16:38.917Z,1.78
2022-12-20T00:17:00.011Z,1.77
2022-12-20T00:17:21.119Z,1.77
2022-12-20T00:17:42.256Z,1.78
2022-12-20T00:18:03.447Z,1.78
2022-12-20T00:18:24.508Z,1.77
2022-12-20T00:18:45.785Z,1.78
2022-12-20T00:19:06.889Z,1.77
2022-12-20T00:19:27.925Z,1.78
2022-12-20T00:19:49.033Z,1.78
2022-12-20T00:20:10.226Z,1.78
2022-12-20T00:20:31.360Z,1.78
2022-12-20T00:20:52.409Z,1.77
2022-12-20T00:21:13.489Z,1.78
2022-12-20T00:21:34.640Z,1.78
2022-12-20T00:21:55.689Z,1.77
2022-12-20T00:22:16.770Z,1.78
2022-12-20T00:22:37.859Z,1.78
2022-12-20T00:22:58.949Z,1.77
2022-12-20T00:23:20.121Z,1.78
2022-12-20T00:23:41.183Z,1.77
2022-12-20T00:24:02.462Z,1.77
2022-12-20T00:24:26.357Z,1.78
2022-12-20T00:24:47.693Z,1.78
2022-12-20T00:25:08.740Z,1.77
2022-12-20T00:25:29.786Z,1.77
2022-12-20T00:25:50.880Z,1.77
2022-12-20T00:26:11.935Z,1.77
2022-12-20T00:26:32.981Z,1.77
2022-12-20T00:26:54.037Z,1.77
2022-12-20T00:27:15.212Z,1.77
2022-12-20T00:27:36.393Z,1.77
2022-12-20T00:27:57.471Z,1.77
2022-12-20T00:28:18.537Z,1.77
2022-12-20T00:28:39.597Z,1.76
2022-12-20T00:29:00.709Z,1.76
2022-12-20T00:29:22.012Z,1.77
2022-12-20T00:29:43.304Z,1.76
2022-12-20T00:30:04.406Z,1.76
2022-12-20T00:30:25.567Z,1.76
2022-12-20T00:30:46.750Z,1.76
2022-12-20T00:31:07.887Z,1.76
2022-12-20T00:31:29.056Z,1.76
2022-12-20T00:31:50.461Z,1.76
2022-12-20T00:32:11.564Z,1.76
2022-12-20T00:32:32.674Z,1.76
2022-12-20T00:32:53.796Z,1.76
2022-12-20T00:33:14.822Z,1.76
2022-12-20T00:33:35.909Z,1.75
2022-12-20T00:33:56.940Z,1.75
2022-12-20T00:34:18.170Z,1.75
2022-12-20T00:34:39.379Z,1.75
2022-12-20T00:35:00.547Z,1.75
2022-12-20T00:35:21.634Z,1.75
2022-12-20T00:35:42.769Z,1.75
2022-12-20T00:36:03.958Z,1.75
2022-12-20T00:36:25.103Z,1.75
2022-12-20T00:36:46.137Z,1.75
2022-12-20T00:37:07.205Z,1.74
2022-12-20T00:37:28.260Z,1.74
2022-12-20T00:37:49.439Z,1.74
2022-12-20T00:38:10.527Z,1.74
2022-12-20T00:38:31.565Z,1.74
2022-12-20T00:38:52.628Z,1.74
2022-12-20T00:39:13.691Z,1.74
2022-12-20T00:39:34.736Z,1.74
2022-12-20T00:39:55.849Z,1.74
2022-12-20T00:40:16.872Z,1.74
2022-12-20T00:40:37.931Z,1.74
2022-12-20T00:40:59.028Z,1.74
2022-12-20T00:41:20.229Z,1.73
2022-12-20T00:41:41.267Z,1.73
2022-12-20T00:42:02.330Z,1.74
2022-12-20T00:42:23.362Z,1.74
2022-12-20T00:42:44.431Z,1.74
2022-12-20T00:43:05.521Z,1.73
2022-12-20T00:43:26.564Z,1.73
2022-12-20T00:43:47.618Z,1.73
2022-12-20T00:44:08.816Z,1.73
2022-12-20T00:44:29.854Z,1.73
2022-12-20T00:44:50.928Z,1.73
2022-12-20T00:45:12.139Z,1.73
2022-12-20T00:45:33.252Z,1.72
2022-12-20T00:45:54.305Z,1.73
2022-12-20T00:46:15.466Z,1.72
2022-12-20T00:46:36.573Z,1.72
2022-12-20T00:46:57.706Z,1.72
2022-12-20T00:47:18.827Z,1.73
2022-12-20T00:47:39.918Z,1.72
2022-12-20T00:48:01.104Z,1.73
2022-12-20T00:48:22.299Z,1.71
2022-12-20T00:48:43.426Z,1.72
2022-12-20T00:49:04.448Z,1.72
2022-12-20T00:49:25.565Z,1.72
2022-12-20T00:49:46.605Z,1.72
2022-12-20T00:50:07.670Z,1.73
2022-12-20T00:50:28.898Z,1.73
2022-12-20T00:50:49.947Z,1.72
2022-12-20T00:51:11.009Z,1.73
2022-12-20T00:51:32.124Z,1.72
2022-12-20T00:51:53.179Z,1.72
2022-12-20T00:52:14.229Z,1.72
2022-12-20T00:52:35.313Z,1.72
2022-12-20T00:52:56.399Z,1.73
2022-12-20T00:53:22.678Z,1.72
2022-12-20T00:53:44.456Z,1.73
2022-12-20T00:54:05.526Z,1.72
2022-12-20T00:54:26.650Z,1.72
2022-12-20T00:54:47.675Z,1.72
2022-12-20T00:55:08.752Z,1.72
2022-12-20T00:55:29.959Z,1.73
2022-12-20T00:55:51.024Z,1.72
2022-12-20T00:56:12.154Z,1.72
2022-12-20T00:56:33.201Z,1.73
2022-12-20T00:56:54.234Z,1.73
2022-12-20T00:57:15.340Z,1.72
2022-12-20T00:57:36.455Z,1.73
2022-12-20T00:57:57.569Z,1.73
2022-12-20T00:58:18.620Z,1.73
2022-12-20T00:58:39.694Z,1.73
2022-12-20T00:59:00.765Z,1.73
2022-12-20T00:59:21.819Z,1.73
2022-12-20T00:59:42.909Z,1.73
2022-12-20T01:00:03.939Z,1.73
2022-12-20T01:00:24.997Z,1.73
2022-12-20T01:00:50.615Z,1.73
2022-12-20T01:01:13.252Z,1.74
2022-12-20T01:01:34.496Z,1.73
2022-12-20T01:01:55.754Z,1.73
2022-12-20T01:02:17.135Z,1.74
2022-12-20T01:02:38.538Z,1.73
2022-12-20T01:02:59.880Z,1.72
2022-12-20T01:03:21.269Z,1.73
2022-12-20T01:03:42.436Z,1.73
2022-12-20T01:04:03.507Z,1.73
2022-12-20T01:04:24.553Z,1.73
2022-12-20T01:04:45.759Z,1.73
2022-12-20T01:05:06.795Z,1.73
2022-12-20T01:05:27.867Z,1.73
2022-12-20T01:05:49.066Z,1.73
2022-12-20T01:06:10.129Z,1.73
2022-12-20T01:06:31.208Z,1.72
2022-12-20T01:06:52.348Z,1.73
2022-12-20T01:07:13.648Z,1.73
2022-12-20T01:07:34.670Z,1.73
2022-12-20T01:07:55.747Z,1.73
2022-12-20T01:08:16.974Z,1.73
2022-12-20T01:08:38.206Z,1.73
2022-12-20T01:08:59.293Z,1.73
2022-12-20T01:09:20.408Z,1.73
2022-12-20T01:09:41.636Z,1.73
2022-12-20T01:10:02.823Z,1.73
2022-12-20T01:10:23.969Z,1.73
2022-12-20T01:10:45.016Z,1.73
2022-12-20T01:11:06.201Z,1.73
2022-12-20T01:11:27.277Z,1.73
2022-12-20T01:11:48.359Z,1.73
2022-12-20T01:12:09.441Z,1.73
2022-12-20T01:12:30.490Z,1.73
2022-12-20T01:12:51.599Z,1.73
2022-12-20T01:13:12.650Z,1.72
2022-12-20T01:13:33.736Z,1.73
2022-12-20T01:13:54.802Z,1.73
2022-12-20T01:14:15.853Z,1.73
2022-12-20T01:14:36.890Z,1.72
2022-12-20T01:14:57.946Z,1.72
2022-12-20T01:15:19.011Z,1.73
2022-12-20T01:15:40.104Z,1.73
2022-12-20T01:16:01.259Z,1.73
2022-12-20T01:16:22.656Z,1.72
2022-12-20T01:16:43.821Z,1.73
2022-12-20T01:17:04.967Z,1.73
2022-12-20T01:17:26.052Z,1.73
2022-12-20T01:17:47.106Z,1.73
2022-12-20T01:18:08.167Z,1.73
2022-12-20T01:18:29.427Z,1.73
2022-12-20T01:18:50.484Z,1.74
2022-12-20T01:19:12.029Z,1.73
2022-12-20T01:19:33.077Z,1.73
2022-12-20T01:19:54.138Z,1.74
2022-12-20T01:20:15.208Z,1.74
2022-12-20T01:20:36.352Z,1.74
2022-12-20T01:20:57.392Z,1.74
2022-12-20T01:21:18.453Z,1.75
2022-12-20T01:21:39.538Z,1.74
2022-12-20T01:22:00.596Z,1.74
2022-12-20T01:22:21.696Z,1.75
2022-12-20T01:22:47.529Z,1.74
2022-12-20T01:23:09.745Z,1.75
2022-12-20T01:23:30.823Z,1.75
2022-12-20T01:23:51.902Z,1.75
2022-12-20T01:24:12.990Z,1.75
2022-12-20T01:24:34.147Z,1.75
2022-12-20T01:24:55.298Z,1.76
2022-12-20T01:25:16.462Z,1.75
2022-12-20T01:25:37.543Z,1.75
2022-12-20T01:25:58.640Z,1.75
2022-12-20T01:26:19.704Z,1.76
2022-12-20T01:26:40.880Z,1.75
2022-12-20T01:27:01.951Z,1.76
2022-12-20T01:27:23.012Z,1.75
2022-12-20T01:27:44.068Z,1.76
2022-12-20T01:28:05.130Z,1.75
2022-12-20T01:28:26.203Z,1.76
2022-12-20T01:28:47.254Z,1.76
2022-12-20T01:29:08.383Z,1.76
2022-12-20T01:29:29.497Z,1.76
2022-12-20T01:29:50.569Z,1.76
2022-12-20T01:30:11.633Z,1.76
2022-12-20T01:30:32.701Z,1.76
2022-12-20T01:30:53.748Z,1.76
2022-12-20T01:31:14.830Z,1.76
2022-12-20T01:31:35.891Z,1.76
2022-12-20T01:31:57.855Z,1.76
2022-12-20T01:32:19.054Z,1.77
2022-12-20T01:32:40.153Z,1.76
2022-12-20T01:33:01.208Z,1.77
2022-12-20T01:33:22.282Z,1.76
2022-12-20T01:33:43.341Z,1.77
2022-12-20T01:34:04.411Z,1.77
2022-12-20T01:34:25.500Z,1.77
2022-12-20T01:34:46.672Z,1.77
2022-12-20T01:35:07.933Z,1.77
2022-12-20T01:35:29.005Z,1.77
2022-12-20T01:35:50.071Z,1.77
2022-12-20T01:36:11.141Z,1.77
2022-12-20T01:36:32.196Z,1.77
2022-12-20T01:36:53.250Z,1.77
2022-12-20T01:37:14.327Z,1.77
2022-12-20T01:37:35.381Z,1.77
2022-12-20T01:37:56.444Z,1.77
2022-12-20T01:38:17.556Z,1.77
2022-12-20T01:38:38.713Z,1.76
2022-12-20T01:38:59.866Z,1.76
2022-12-20T01:39:20.919Z,1.77
2022-12-20T01:39:41.967Z,1.77
2022-12-20T01:40:03.031Z,1.77
2022-12-20T01:40:24.102Z,1.77
2022-12-20T01:40:45.185Z,1.76
2022-12-20T01:41:06.227Z,1.76
2022-12-20T01:41:27.289Z,1.76
2022-12-20T01:41:48.354Z,1.76
2022-12-20T01:42:09.420Z,1.76
2022-12-20T01:42:30.494Z,1.76
2022-12-20T01:42:51.552Z,1.77
2022-12-20T01:43:12.619Z,1.77
2022-12-20T01:43:33.700Z,1.76
2022-12-20T01:43:54.785Z,1.76
2022-12-20T01:44:15.879Z,1.76
2022-12-20T01:44:36.927Z,1.76
2022-12-20T01:44:58.056Z,1.75
2022-12-20T01:45:19.072Z,1.76
2022-12-20T01:45:40.169Z,1.76
2022-12-20T01:46:01.471Z,1.76
2022-12-20T01:46:22.832Z,1.75
2022-12-20T01:46:43.873Z,1.75
2022-12-20T01:47:04.920Z,1.76
2022-12-20T01:47:25.979Z,1.75
2022-12-20T01:47:47.056Z,1.75
2022-12-20T01:48:08.123Z,1.76
2022-12-20T01:48:29.200Z,1.76
2022-12-20T01:48:50.257Z,1.76
2022-12-20T01:49:11.308Z,1.76
2022-12-20T01:49:32.373Z,1.75
2022-12-20T01:49:53.457Z,1.75
2022-12-20T01:50:14.495Z,1.75
2022-12-20T01:50:35.560Z,1.76
2022-12-20T01:50:56.628Z,1.76
2022-12-20T01:51:17.705Z,1.76
2022-12-20T01:51:38.755Z,1.76
2022-12-20T01:51:59.832Z,1.76
2022-12-20T01:52:20.987Z,1.76
2022-12-20T01:52:42.041Z,1.75
2022-12-20T01:53:03.217Z,1.75
2022-12-20T01:53:24.290Z,1.76
2022-12-20T01:53:45.367Z,1.76
2022-12-20T01:54:06.416Z,1.75
2022-12-20T01:54:27.462Z,1.76
2022-12-20T01:54:48.526Z,1.76
2022-12-20T01:55:09.591Z,1.75
2022-12-20T01:55:30.645Z,1.76
2022-12-20T01:55:51.715Z,1.76
2022-12-20T01:56:12.754Z,1.77
2022-12-20T01:56:33.811Z,1.76
2022-12-20T01:56:54.906Z,1.75
2022-12-20T01:57:16.038Z,1.75
2022-12-20T01:57:37.126Z,1.76
2022-12-20T01:57:58.170Z,1.75
2022-12-20T01:58:19.413Z,1.76
2022-12-20T01:58:40.466Z,1.76
2022-12-20T01:59:01.510Z,1.76
2022-12-20T01:59:22.587Z,1.76
2022-12-20T01:59:43.671Z,1.76
2022-12-20T02:00:04.699Z,1.76
2022-12-20T02:00:25.758Z,1.76
2022-12-20T02:00:46.861Z,1.76
2022-12-20T02:01:07.981Z,1.76
2022-12-20T02:01:29.186Z,1.76
2022-12-20T02:01:50.528Z,1.75
2022-12-20T02:02:11.887Z,1.76
2022-12-20T02:02:33.246Z,1.76
2022-12-20T02:02:54.492Z,1.76
2022-12-20T02:03:15.952Z,1.76
2022-12-20T02:03:37.257Z,1.76
2022-12-20T02:03:58.289Z,1.75
2022-12-20T02:04:19.340Z,1.75
2022-12-20T02:04:40.399Z,1.76
2022-12-20T02:05:01.473Z,1.75
2022-12-20T02:05:22.564Z,1.76
2022-12-20T02:05:43.607Z,1.75
2022-12-20T02:06:04.714Z,1.75
2022-12-20T02:06:26.035Z,1.76
2022-12-20T02:06:47.103Z,1.76
2022-12-20T02:07:08.167Z,1.75
2022-12-20T02:07:29.272Z,1.75
2022-12-20T02:07:50.433Z,1.75
2022-12-20T02:08:11.480Z,1.75
2022-12-20T02:08:32.539Z,1.75
2022-12-20T02:08:53.775Z,1.76
2022-12-20T02:09:14.870Z,1.75
2022-12-20T02:09:35.940Z,1.76
2022-12-20T02:09:57.003Z,1.76
2022-12-20T02:10:18.038Z,1.75
2022-12-20T02:10:39.110Z,1.76
2022-12-20T02:11:00.177Z,1.75
2022-12-20T02:11:21.342Z,1.75
2022-12-20T02:11:42.405Z,1.75
2022-12-20T02:12:03.520Z,1.75
2022-12-20T02:12:24.537Z,1.75
2022-12-20T02:12:45.669Z,1.75
2022-12-20T02:13:07.072Z,1.75
2022-12-20T02:13:28.130Z,1.76
2022-12-20T02:13:49.174Z,1.75
2022-12-20T02:14:10.520Z,1.76
2022-12-20T02:14:31.572Z,1.76
2022-12-20T02:14:52.637Z,1.75
2022-12-20T02:15:13.694Z,1.75
2022-12-20T02:15:34.761Z,1.74
2022-12-20T02:15:55.825Z,1.75
2022-12-20T02:16:16.907Z,1.74
2022-12-20T02:16:37.990Z,1.75
2022-12-20T02:16:59.138Z,1.75
2022-12-20T02:17:20.211Z,1.75
2022-12-20T02:17:41.270Z,1.75
2022-12-20T02:18:02.324Z,1.75
2022-12-20T02:18:23.396Z,1.75
2022-12-20T02:18:44.457Z,1.75
2022-12-20T02:19:05.506Z,1.75
2022-12-20T02:19:26.791Z,1.75
2022-12-20T02:19:47.920Z,1.75
2022-12-20T02:20:08.985Z,1.75
2022-12-20T02:20:30.036Z,1.75
2022-12-20T02:20:51.251Z,1.74
2022-12-20T02:21:12.462Z,1.75
2022-12-20T02:21:33.525Z,1.74
2022-12-20T02:21:54.568Z,1.75
2022-12-20T02:22:15.645Z,1.75
2022-12-20T02:22:36.874Z,1.75
2022-12-20T02:22:58.013Z,1.75
2022-12-20T02:23:19.066Z,1.75
2022-12-20T02:23:40.144Z,1.75
2022-12-20T02:24:01.231Z,1.75
2022-12-20T02:24:22.250Z,1.75
2022-12-20T02:24:43.505Z,1.75
2022-12-20T02:25:04.558Z,1.75
2022-12-20T02:25:25.613Z,1.75
2022-12-20T02:25:46.680Z,1.75
2022-12-20T02:26:07.763Z,1.74
2022-12-20T02:26:28.797Z,1.75
2022-12-20T02:26:49.868Z,1.75
2022-12-20T02:27:10.941Z,1.75
2022-12-20T02:27:32.067Z,1.74
2022-12-20T02:27:53.190Z,1.75
2022-12-20T02:28:14.247Z,1.75
2022-12-20T02:28:35.558Z,1.75
2022-12-20T02:28:57.743Z,1.75
2022-12-20T02:29:18.824Z,1.75
2022-12-20T02:29:39.923Z,1.75
2022-12-20T02:30:01.013Z,1.74
2022-12-20T02:30:22.058Z,1.75
2022-12-20T02:30:43.126Z,1.74
2022-12-20T02:31:04.172Z,1.75
2022-12-20T02:31:25.321Z,1.75
2022-12-20T02:31:46.429Z,1.75
2022-12-20T02:32:07.473Z,1.74
2022-12-20T02:32:28.547Z,1.75
2022-12-20T02:32:49.606Z,1.75
2022-12-20T02:33:10.679Z,1.75
2022-12-20T02:33:31.720Z,1.75
2022-12-20T02:33:52.803Z,1.75
2022-12-20T02:34:13.877Z,1.74
2022-12-20T02:34:35.030Z,1.75
2022-12-20T02:34:56.095Z,1.74
2022-12-20T02:35:17.330Z,1.75
2022-12-20T02:35:38.415Z,1.74
2022-12-20T02:35:59.480Z,1.74
2022-12-20T02:36:20.537Z,1.75
2022-12-20T02:36:41.592Z,1.74
2022-12-20T02:37:02.643Z,1.75
2022-12-20T02:37:23.712Z,1.74
2022-12-20T02:37:46.722Z,1.74
2022-12-20T02:38:07.774Z,1.74
2022-12-20T02:38:28.841Z,1.75
2022-12-20T02:38:49.895Z,1.75
2022-12-20T02:39:11.003Z,1.75
2022-12-20T02:39:32.187Z,1.76
2022-12-20T02:39:53.251Z,1.75
2022-12-20T02:40:14.313Z,1.75
2022-12-20T02:40:35.417Z,1.75
2022-12-20T02:40:56.603Z,1.75
2022-12-20T02:41:17.931Z,1.75
2022-12-20T02:41:38.978Z,1.75
2022-12-20T02:42:00.062Z,1.75
2022-12-20T02:42:21.116Z,1.76
2022-12-20T02:42:42.164Z,1.75
2022-12-20T02:43:03.239Z,1.76
2022-12-20T02:43:24.278Z,1.75
2022-12-20T02:43:45.334Z,1.76
2022-12-20T02:44:06.432Z,1.76
2022-12-20T02:44:27.467Z,1.76
2022-12-20T02:44:48.531Z,1.76
2022-12-20T02:45:09.609Z,1.75
2022-12-20T02:45:30.720Z,1.76
2022-12-20T02:45:51.997Z,1.75
2022-12-20T02:46:13.133Z,1.76
2022-12-20T02:46:34.191Z,1.76
2022-12-20T02:46:55.243Z,1.76
2022-12-20T02:47:16.296Z,1.76
2022-12-20T02:47:37.357Z,1.75
2022-12-20T02:47:58.421Z,1.75
2022-12-20T02:48:19.470Z,1.76
2022-12-20T02:48:40.540Z,1.76
2022-12-20T02:49:01.630Z,1.76
2022-12-20T02:49:22.709Z,1.76
2022-12-20T02:49:43.969Z,1.76
2022-12-20T02:50:05.121Z,1.75
2022-12-20T02:50:26.241Z,1.75
2022-12-20T02:50:47.376Z,1.76
2022-12-20T02:51:08.714Z,1.76
2022-12-20T02:51:29.799Z,1.75
2022-12-20T02:51:50.827Z,1.76
2022-12-20T02:52:11.893Z,1.77
2022-12-20T02:52:32.945Z,1.75
2022-12-20T02:52:54.001Z,1.75
2022-12-20T02:53:15.075Z,1.76
2022-12-20T02:53:36.153Z,1.76
2022-12-20T02:53:57.209Z,1.75
2022-12-20T02:54:18.257Z,1.76
2022-12-20T02:54:39.315Z,1.75
2022-12-20T02:55:00.404Z,1.75
2022-12-20T02:55:21.444Z,1.75
2022-12-20T02:55:42.503Z,1.76
2022-12-20T02:56:03.575Z,1.75
2022-12-20T02:56:24.807Z,1.76
2022-12-20T02:56:45.861Z,1.75
2022-12-20T02:57:06.919Z,1.75
2022-12-20T02:57:27.973Z,1.75
2022-12-20T02:57:52.148Z,1.75
2022-12-20T02:58:16.047Z,1.76
2022-12-20T02:58:37.092Z,1.75
2022-12-20T02:58:58.156Z,1.75
2022-12-20T02:59:19.220Z,1.75
2022-12-20T02:59:40.332Z,1.75
2022-12-20T03:00:01.398Z,1.75
2022-12-20T03:00:22.554Z,1.75
2022-12-20T03:00:43.614Z,1.75
2022-12-20T03:01:04.930Z,1.75
2022-12-20T03:01:26.223Z,1.75
2022-12-20T03:01:47.390Z,1.75
2022-12-20T03:02:08.753Z,1.76
2022-12-20T03:02:30.108Z,1.75
2022-12-20T03:02:51.510Z,1.75
2022-12-20T03:03:12.886Z,1.75
2022-12-20T03:03:34.177Z,1.75
2022-12-20T03:03:55.244Z,1.75
2022-12-20T03:04:16.326Z,1.74
2022-12-20T03:04:37.370Z,1.75
2022-12-20T03:04:58.430Z,1.75
2022-12-20T03:05:19.482Z,1.75
2022-12-20T03:05:40.552Z,1.75
2022-12-20T03:06:01.620Z,1.75
2022-12-20T03:06:22.730Z,1.74
2022-12-20T03:06:43.791Z,1.75
2022-12-20T03:07:04.854Z,1.75
2022-12-20T03:07:25.898Z,1.75
2022-12-20T03:07:46.965Z,1.75
2022-12-20T03:08:08.010Z,1.75
2022-12-20T03:08:29.122Z,1.75
2022-12-20T03:08:50.164Z,1.75
2022-12-20T03:09:11.241Z,1.75
2022-12-20T03:09:32.308Z,1.74
2022-12-20T03:09:53.385Z,1.75
2022-12-20T03:10:14.451Z,1.74
2022-12-20T03:10:35.543Z,1.75
2022-12-20T03:10:56.568Z,1.74
2022-12-20T03:11:17.670Z,1.75
2022-12-20T03:11:38.715Z,1.75
2022-12-20T03:11:59.838Z,1.75
2022-12-20T03:12:21.040Z,1.75
2022-12-20T03:12:42.198Z,1.75
2022-12-20T03:13:03.227Z,1.75
2022-12-20T03:13:24.311Z,1.75
2022-12-20T03:13:45.541Z,1.75
2022-12-20T03:14:06.720Z,1.75
2022-12-20T03:14:27.769Z,1.75
2022-12-20T03:14:48.846Z,1.75
2022-12-20T03:15:09.952Z,1.76
2022-12-20T03:15:31.008Z,1.75
2022-12-20T03:15:52.097Z,1.75
2022-12-20T03:16:13.135Z,1.75
2022-12-20T03:16:34.264Z,1.76
2022-12-20T03:16:55.328Z,1.75
2022-12-20T03:17:16.624Z,1.76
2022-12-20T03:17:37.716Z,1.76
2022-12-20T03:17:58.763Z,1.77
2022-12-20T03:18:19.820Z,1.76
2022-12-20T03:18:40.883Z,1.77
2022-12-20T03:19:01.924Z,1.77
2022-12-20T03:19:23.051Z,1.77
2022-12-20T03:19:44.127Z,1.77
2022-12-20T03:20:05.282Z,1.77
2022-12-20T03:20:26.409Z,1.77
2022-12-20T03:20:47.465Z,1.76
2022-12-20T03:21:08.643Z,1.77
2022-12-20T03:21:29.683Z,1.76
2022-12-20T03:21:50.748Z,1.77
2022-12-20T03:22:11.819Z,1.77
2022-12-20T03:22:33.060Z,1.77
2022-12-20T03:22:54.100Z,1.77
2022-12-20T03:23:15.156Z,1.78
2022-12-20T03:23:36.239Z,1.77
2022-12-20T03:23:57.293Z,1.78
2022-12-20T03:24:18.350Z,1.79
2022-12-20T03:24:39.435Z,1.79
2022-12-20T03:25:00.476Z,1.78
2022-12-20T03:25:21.552Z,1.78
2022-12-20T03:25:42.610Z,1.78
2022-12-20T03:26:03.892Z,1.78
2022-12-20T03:26:24.981Z,1.79
2022-12-20T03:26:46.243Z,1.78
2022-12-20T03:27:07.368Z,1.78
2022-12-20T03:27:28.440Z,1.78
2022-12-20T03:27:49.505Z,1.79
2022-12-20T03:28:10.568Z,1.79
2022-12-20T03:28:31.628Z,1.78
2022-12-20T03:28:52.680Z,1.78
2022-12-20T03:29:13.765Z,1.78
2022-12-20T03:29:34.805Z,1.78
2022-12-20T03:29:55.870Z,1.79
2022-12-20T03:30:16.906Z,1.78
2022-12-20T03:30:38.031Z,1.78
2022-12-20T03:30:59.238Z,1.79
2022-12-20T03:31:20.312Z,1.78
2022-12-20T03:31:41.354Z,1.78
2022-12-20T03:32:02.418Z,1.79
2022-12-20T03:32:23.649Z,1.79
2022-12-20T03:32:44.829Z,1.79
2022-12-20T03:33:05.930Z,1.79
2022-12-20T03:33:27.039Z,1.78
2022-12-20T03:33:48.125Z,1.79
2022-12-20T03:34:09.192Z,1.79
2022-12-20T03:34:30.279Z,1.79
2022-12-20T03:34:51.549Z,1.79
2022-12-20T03:35:12.625Z,1.79
2022-12-20T03:35:33.663Z,1.78
2022-12-20T03:35:54.738Z,1.79
2022-12-20T03:36:15.776Z,1.78
2022-12-20T03:36:36.847Z,1.78
2022-12-20T03:36:57.892Z,1.78
2022-12-20T03:37:18.955Z,1.78
2022-12-20T03:37:40.023Z,1.78
2022-12-20T03:38:01.093Z,1.79
2022-12-20T03:38:22.303Z,1.77
2022-12-20T03:38:43.381Z,1.78
2022-12-20T03:39:04.438Z,1.78
2022-12-20T03:39:25.479Z,1.78
2022-12-20T03:39:46.567Z,1.78
2022-12-20T03:40:07.627Z,1.78
2022-12-20T03:40:28.705Z,1.78
2022-12-20T03:40:49.732Z,1.78
2022-12-20T03:41:10.899Z,1.79
2022-12-20T03:41:31.968Z,1.79
2022-12-20T03:41:53.449Z,1.79
2022-12-20T03:42:14.499Z,1.78
2022-12-20T03:42:35.577Z,1.78
2022-12-20T03:42:56.604Z,1.79
2022-12-20T03:43:17.681Z,1.78
2022-12-20T03:43:38.732Z,1.79
2022-12-20T03:43:59.846Z,1.79
2022-12-20T03:44:20.969Z,1.79
2022-12-20T03:44:42.162Z,1.79
2022-12-20T03:45:03.283Z,1.79
2022-12-20T03:45:24.346Z,1.79
2022-12-20T03:45:45.406Z,1.80
2022-12-20T03:46:06.608Z,1.79
2022-12-20T03:46:27.788Z,1.79
2022-12-20T03:46:48.974Z,1.80
2022-12-20T03:47:10.042Z,1.80
2022-12-20T03:47:31.142Z,1.80
2022-12-20T03:47:52.178Z,1.81
2022-12-20T03:48:13.265Z,1.80
2022-12-20T03:48:34.371Z,1.80
2022-12-20T03:48:55.419Z,1.80
2022-12-20T03:49:16.497Z,1.80
2022-12-20T03:49:37.546Z,1.80
2022-12-20T03:49:58.609Z,1.80
2022-12-20T03:50:19.651Z,1.80
2022-12-20T03:50:40.716Z,1.80
2022-12-20T03:51:01.799Z,1.80
2022-12-20T03:51:22.961Z,1.80
2022-12-20T03:51:44.027Z,1.81
2022-12-20T03:52:05.366Z,1.81
2022-12-20T03:52:26.426Z,1.81
2022-12-20T03:52:47.494Z,1.81
2022-12-20T03:53:08.542Z,1.82
2022-12-20T03:53:29.620Z,1.81
2022-12-20T03:53:50.702Z,1.82
2022-12-20T03:54:11.888Z,1.82
2022-12-20T03:54:32.960Z,1.82
2022-12-20T03:54:54.024Z,1.81
2022-12-20T03:55:15.094Z,1.83
2022-12-20T03:55:36.165Z,1.82
2022-12-20T03:55:57.204Z,1.83
2022-12-20T03:56:18.273Z,1.83
2022-12-20T03:56:39.327Z,1.82
2022-12-20T03:57:00.411Z,1.83
2022-12-20T03:57:21.447Z,1.82
2022-12-20T03:57:42.522Z,1.83
2022-12-20T03:58:03.759Z,1.82
2022-12-20T03:58:24.955Z,1.82
2022-12-20T03:58:46.023Z,1.83
2022-12-20T03:59:07.091Z,1.82
2022-12-20T03:59:28.188Z,1.82
2022-12-20T03:59:49.252Z,1.82
2022-12-20T04:00:10.307Z,1.82
2022-12-20T04:00:31.364Z,1.83
2022-12-20T04:00:52.454Z,1.83
2022-12-20T04:01:13.544Z,1.82
2022-12-20T04:01:34.737Z,1.84
2022-12-20T04:01:55.971Z,1.82
2022-12-20T04:02:17.347Z,1.83
2022-12-20T04:02:38.756Z,1.83
2022-12-20T04:03:00.110Z,1.83
2022-12-20T04:03:21.350Z,1.83
2022-12-20T04:03:42.519Z,1.83
2022-12-20T04:04:03.691Z,1.84
2022-12-20T04:04:24.819Z,1.83
2022-12-20T04:04:45.924Z,1.83
2022-12-20T04:05:06.994Z,1.83
2022-12-20T04:05:28.042Z,1.83
2022-12-20T04:05:49.094Z,1.84
2022-12-20T04:06:10.167Z,1.83
2022-12-20T04:06:31.211Z,1.84
2022-12-20T04:06:52.277Z,1.84
2022-12-20T04:07:13.347Z,1.84
2022-12-20T04:07:34.405Z,1.84
2022-12-20T04:07:55.446Z,1.84
2022-12-20T04:08:16.520Z,1.84
2022-12-20T04:08:37.593Z,1.84
2022-12-20T04:08:58.647Z,1.84
2022-12-20T04:09:19.699Z,1.84
2022-12-20T04:09:40.754Z,1.85
2022-12-20T04:10:01.829Z,1.84
2022-12-20T04:10:22.895Z,1.84
2022-12-20T04:10:43.973Z,1.84
2022-12-20T04:11:05.025Z,1.85
2022-12-20T04:11:26.097Z,1.85
2022-12-20T04:11:47.157Z,1.85
2022-12-20T04:12:08.225Z,1.84
2022-12-20T04:12:29.258Z,1.84
2022-12-20T04:12:50.327Z,1.85
2022-12-20T04:13:11.372Z,1.84
2022-12-20T04:13:32.434Z,1.84
2022-12-20T04:13:53.530Z,1.84
2022-12-20T04:14:14.550Z,1.84
2022-12-20T04:14:35.599Z,1.85
2022-12-20T04:14:56.664Z,1.85
2022-12-20T04:15:17.746Z,1.84
2022-12-20T04:15:38.837Z,1.84
2022-12-20T04:16:00.862Z,1.85
2022-12-20T04:16:22.456Z,1.84
2022-12-20T04:16:43.545Z,1.84
2022-12-20T04:17:04.603Z,1.85
2022-12-20T04:17:25.657Z,1.85
2022-12-20T04:17:46.729Z,1.85
2022-12-20T04:18:07.823Z,1.85
2022-12-20T04:18:28.872Z,1.85
2022-12-20T04:18:49.940Z,1.86
2022-12-20T04:19:10.987Z,1.86
2022-12-20T04:19:32.088Z,1.85
2022-12-20T04:19:53.136Z,1.85
2022-12-20T04:20:14.366Z,1.86
2022-12-20T04:20:35.530Z,1.86
2022-12-20T04:20:56.857Z,1.85
2022-12-20T04:21:17.906Z,1.86
2022-12-20T04:21:38.966Z,1.86
2022-12-20T04:22:05.189Z,1.86
2022-12-20T04:22:27.008Z,1.87
2022-12-20T04:22:48.049Z,1.86
2022-12-20T04:23:09.106Z,1.86
2022-12-20T04:23:30.202Z,1.86
2022-12-20T04:23:51.278Z,1.87
2022-12-20T04:24:12.395Z,1.87
2022-12-20T04:24:33.470Z,1.86
2022-12-20T04:24:54.520Z,1.87
2022-12-20T04:25:15.575Z,1.87
2022-12-20T04:25:36.652Z,1.87
2022-12-20T04:25:57.714Z,1.86
2022-12-20T04:26:18.772Z,1.86
2022-12-20T04:26:39.831Z,1.87
2022-12-20T04:27:00.921Z,1.86
2022-12-20T04:27:22.213Z,1.87
2022-12-20T04:27:43.322Z,1.87
2022-12-20T04:28:04.376Z,1.86
2022-12-20T04:28:25.440Z,1.87
2022-12-20T04:28:46.506Z,1.86
2022-12-20T04:29:07.559Z,1.87
2022-12-20T04:29:28.617Z,1.87
2022-12-20T04:29:49.669Z,1.87
2022-12-20T04:30:10.726Z,1.86
2022-12-20T04:30:31.842Z,1.86
2022-12-20T04:30:53.034Z,1.86
2022-12-20T04:31:17.275Z,1.86
2022-12-20T04:31:41.104Z,1.87
2022-12-20T04:32:02.145Z,1.86
2022-12-20T04:32:23.217Z,1.86
2022-12-20T04:32:44.287Z,1.86
2022-12-20T04:33:05.342Z,1.87
2022-12-20T04:33:26.418Z,1.86
2022-12-20T04:33:47.462Z,1.86
2022-12-20T04:34:08.547Z,1.87
2022-12-20T04:34:29.598Z,1.87
2022-12-20T04:34:50.658Z,1.86
2022-12-20T04:35:11.741Z,1.86
2022-12-20T04:35:32.810Z,1.87
2022-12-20T04:35:53.886Z,1.86
2022-12-20T04:36:14.948Z,1.87
2022-12-20T04:36:36.140Z,1.87
2022-12-20T04:36:57.186Z,1.87
2022-12-20T04:37:18.247Z,1.87
2022-12-20T04:37:39.317Z,1.87
2022-12-20T04:38:00.349Z,1.87
2022-12-20T04:38:21.414Z,1.87
2022-12-20T04:38:42.472Z,1.87
2022-12-20T04:39:03.535Z,1.87
2022-12-20T04:39:24.593Z,1.87
2022-12-20T04:39:45.651Z,1.87
2022-12-20T04:40:06.745Z,1.87
2022-12-20T04:40:27.802Z,1.87
2022-12-20T04:40:48.866Z,1.87
2022-12-20T04:41:10.139Z,1.88
2022-12-20T04:41:31.294Z,1.87